Time,TemperatureF,DewpointF,PressureIn,WindDirection,WindDirectionDegrees,WindSpeedMPH,WindSpeedGustMPH,Humidity,HourlyPrecipIn,Conditions,Clouds,dailyrainin,SoftwareType,DateUTC
2013-04-23 00:00:00,79.0,75.0,29.90,ENE,67,3.0,9.0,87,0.00,,,0.00,weatherlink.com 1.10,2013-04-23 04:00:00,
2013-04-23 00:15:00,79.0,75.0,29.90,ESE,105,7.0,9.0,87,0.00,,,0.00,weatherlink.com 1.10,2013-04-23 04:15:00,
2013-04-23 00:30:00,78.9,75.0,29.89,East,79,5.0,11.0,87,0.00,,,0.00,weatherlink.com 1.10,2013-04-23 04:30:00,
2013-04-23 00:45:00,78.8,75.0,29.89,ENE,63,3.0,11.0,87,0.00,,,0.00,weatherlink.com 1.10,2013-04-23 04:45:00,
2013-04-23 01:00:00,78.7,75.0,29.88,ENE,58,7.0,10.0,87,0.00,,,0.00,weatherlink.com 1.10,2013-04-23 05:00:00,
2013-04-23 01:15:00,78.6,75.0,29.88,NE,52,8.0,10.0,88,0.00,,,0.00,weatherlink.com 1.10,2013-04-23 05:15:00,
2013-04-23 01:30:00,78.5,75.0,29.88,ENE,71,4.0,9.0,88,0.00,,,0.00,weatherlink.com 1.10,2013-04-23 05:30:00,
2013-04-23 01:45:00,78.4,74.0,29.87,SE,126,1.0,11.0,87,0.00,,,0.00,weatherlink.com 1.10,2013-04-23 05:45:00,
2013-04-23 02:00:00,78.3,74.0,29.86,East,80,7.0,10.0,87,0.00,,,0.00,weatherlink.com 1.10,2013-04-23 06:00:00,
2013-04-23 02:15:00,78.1,74.0,29.86,East,80,5.0,9.0,87,0.00,,,0.00,weatherlink.com 1.10,2013-04-23 06:15:00,
2013-04-23 02:30:00,78.0,74.0,29.85,ENE,71,4.0,10.0,87,0.00,,,0.00,weatherlink.com 1.10,2013-04-23 06:30:00,
2013-04-23 02:45:00,77.9,74.0,29.85,East,93,5.0,8.0,87,0.00,,,0.00,weatherlink.com 1.10,2013-04-23 06:45:00,
2013-04-23 03:00:00,77.9,74.0,29.84,East,80,6.0,8.0,87,0.00,,,0.00,weatherlink.com 1.10,2013-04-23 07:00:00,
2013-04-23 03:15:00,77.8,74.0,29.84,ESE,111,7.0,7.0,88,0.00,,,0.00,weatherlink.com 1.10,2013-04-23 07:15:00,
2013-04-23 03:30:00,77.7,74.0,29.84,ESE,111,3.0,7.0,88,0.00,,,0.00,weatherlink.com 1.10,2013-04-23 07:30:00,
2013-04-23 03:45:00,77.8,74.0,29.84,ESE,122,0.0,6.0,87,0.00,,,0.00,weatherlink.com 1.10,2013-04-23 07:45:00,
2013-04-23 04:00:00,77.6,74.0,29.84,SE,125,0.0,5.0,87,0.00,,,0.00,weatherlink.com 1.10,2013-04-23 08:00:00,
2013-04-23 04:15:00,77.4,73.0,29.84,ESE,111,3.0,4.0,87,0.00,,,0.00,weatherlink.com 1.10,2013-04-23 08:15:00,
2013-04-23 04:30:00,77.3,73.0,29.84,East,101,1.0,3.0,87,0.00,,,0.00,weatherlink.com 1.10,2013-04-23 08:30:00,
2013-04-23 04:45:00,77.2,74.0,29.84,East,96,2.0,3.0,88,0.00,,,0.00,weatherlink.com 1.10,2013-04-23 08:45:00,
2013-04-23 05:00:00,77.2,74.0,29.85,East,97,2.0,3.0,89,0.00,,,0.00,weatherlink.com 1.10,2013-04-23 09:00:00,
2013-04-23 05:15:00,77.3,74.0,29.85,East,97,0.0,2.0,89,0.00,,,0.00,weatherlink.com 1.10,2013-04-23 09:15:00,
2013-04-23 05:30:00,77.5,74.0,29.86,East,98,3.0,3.0,90,0.00,,,0.00,weatherlink.com 1.10,2013-04-23 09:30:00,
2013-04-23 05:45:00,77.6,75.0,29.86,East,98,1.0,3.0,90,0.00,,,0.00,weatherlink.com 1.10,2013-04-23 09:45:00,
2013-04-23 06:00:00,77.6,75.0,29.86,East,98,1.0,2.0,90,0.00,,,0.00,weatherlink.com 1.10,2013-04-23 10:00:00,
2013-04-23 06:15:00,77.5,74.0,29.86,East,98,0.0,2.0,90,0.00,,,0.00,weatherlink.com 1.10,2013-04-23 10:15:00,
2013-04-23 06:30:00,77.5,75.0,29.86,East,98,0.0,3.0,91,0.00,,,0.00,weatherlink.com 1.10,2013-04-23 10:30:00,
2013-04-23 06:45:00,77.8,75.0,29.87,ESE,107,1.0,3.0,91,0.00,,,0.00,weatherlink.com 1.10,2013-04-23 10:45:00,
2013-04-23 07:00:00,77.9,75.0,29.88,East,94,5.0,5.0,91,0.00,,,0.00,weatherlink.com 1.10,2013-04-23 11:00:00,
2013-04-23 07:15:00,77.8,75.0,29.88,NE,55,3.0,7.0,90,0.00,,,0.00,weatherlink.com 1.10,2013-04-23 11:15:00,
2013-04-23 07:30:00,77.8,75.0,29.88,ENE,66,0.0,3.0,90,0.00,,,0.00,weatherlink.com 1.10,2013-04-23 11:30:00,
2013-04-23 07:45:00,78.3,76.0,29.88,East,84,5.0,7.0,91,0.00,,,0.00,weatherlink.com 1.10,2013-04-23 11:45:00,
2013-04-23 08:00:00,78.9,76.0,29.88,ENE,72,2.0,7.0,90,0.00,,,0.00,weatherlink.com 1.10,2013-04-23 12:00:00,
2013-04-23 08:15:00,79.7,75.0,29.89,East,96,6.0,11.0,86,0.00,,,0.00,weatherlink.com 1.10,2013-04-23 12:15:00,
2013-04-23 08:30:00,81.4,76.0,29.89,East,88,8.0,13.0,83,0.00,,,0.00,weatherlink.com 1.10,2013-04-23 12:30:00,
2013-04-23 08:45:00,81.6,76.0,29.90,SE,126,8.0,13.0,82,0.00,,,0.00,weatherlink.com 1.10,2013-04-23 12:45:00,
2013-04-23 09:00:00,82.2,75.0,29.90,ENE,78,3.0,10.0,79,0.00,,,0.00,weatherlink.com 1.10,2013-04-23 13:00:00,
2013-04-23 09:16:00,83.8,74.0,29.90,East,94,8.0,11.0,72,0.00,,,0.00,weatherlink.com 1.10,2013-04-23 13:16:00,
2013-04-23 09:31:00,83.9,74.0,29.90,ENE,67,3.0,13.0,72,0.00,,,0.00,weatherlink.com 1.10,2013-04-23 13:31:00,
2013-04-23 09:46:00,84.8,74.0,29.90,ESE,111,4.0,13.0,71,0.00,,,0.00,weatherlink.com 1.10,2013-04-23 13:46:00,
2013-04-23 10:01:00,84.7,76.0,29.90,East,92,6.0,16.0,74,0.00,,,0.00,weatherlink.com 1.10,2013-04-23 14:01:00,
2013-04-23 10:16:00,84.8,76.0,29.90,East,85,11.0,16.0,75,0.00,,,0.00,weatherlink.com 1.10,2013-04-23 14:16:00,
2013-04-23 10:31:00,85.2,77.0,29.90,ESE,113,4.0,13.0,75,0.00,,,0.00,weatherlink.com 1.10,2013-04-23 14:31:00,
2013-04-23 10:46:00,85.0,76.0,29.91,SSE,164,6.0,13.0,74,0.00,,,0.00,weatherlink.com 1.10,2013-04-23 14:46:00,
2013-04-23 11:01:00,84.2,76.0,29.90,SE,145,4.0,11.0,76,0.00,,,0.00,weatherlink.com 1.10,2013-04-23 15:01:00,
2013-04-23 11:16:00,84.9,76.0,29.90,SE,129,8.0,12.0,74,0.00,,,0.00,weatherlink.com 1.10,2013-04-23 15:16:00,
2013-04-23 11:31:00,86.3,76.0,29.90,SSE,164,5.0,14.0,71,0.00,,,0.00,weatherlink.com 1.10,2013-04-23 15:31:00,
2013-04-23 11:46:00,85.2,76.0,29.90,East,90,9.0,12.0,74,0.00,,,0.00,weatherlink.com 1.10,2013-04-23 15:46:00,
2013-04-23 12:01:00,84.8,76.0,29.89,East,84,7.0,16.0,74,0.00,,,0.00,weatherlink.com 1.10,2013-04-23 16:01:00,
2013-04-23 12:16:00,84.2,76.0,29.89,SE,129,6.0,13.0,75,0.00,,,0.00,weatherlink.com 1.10,2013-04-23 16:16:00,
2013-04-23 12:31:00,85.0,75.0,29.88,East,93,9.0,14.0,73,0.00,,,0.00,weatherlink.com 1.10,2013-04-23 16:31:00,
2013-04-23 12:46:00,85.7,76.0,29.88,East,97,6.0,11.0,73,0.00,,,0.00,weatherlink.com 1.10,2013-04-23 16:46:00,
2013-04-23 13:01:00,86.8,76.0,29.87,ENE,59,7.0,15.0,71,0.00,,,0.00,weatherlink.com 1.10,2013-04-23 17:01:00,
2013-04-23 13:16:00,86.0,75.0,29.86,NE,55,4.0,10.0,70,0.00,,,0.00,weatherlink.com 1.10,2013-04-23 17:16:00,
2013-04-23 13:31:00,85.5,76.0,29.86,East,96,9.0,12.0,73,0.00,,,0.00,weatherlink.com 1.10,2013-04-23 17:31:00,
2013-04-23 13:46:00,86.5,76.0,29.86,East,101,8.0,13.0,71,0.00,,,0.00,weatherlink.com 1.10,2013-04-23 17:46:00,
2013-04-23 14:01:00,86.5,76.0,29.85,East,90,1.0,14.0,70,0.00,,,0.00,weatherlink.com 1.10,2013-04-23 18:01:00,
2013-04-23 14:16:00,86.8,76.0,29.84,ESE,122,3.0,13.0,69,0.00,,,0.00,weatherlink.com 1.10,2013-04-23 18:16:00,
2013-04-23 14:31:00,86.8,76.0,29.83,ENE,63,8.0,11.0,69,0.00,,,0.00,weatherlink.com 1.10,2013-04-23 18:31:00,
2013-04-23 14:46:00,86.6,75.0,29.82,ESE,116,4.0,13.0,69,0.00,,,0.00,weatherlink.com 1.10,2013-04-23 18:46:00,
2013-04-23 15:01:00,85.9,76.0,29.81,East,91,11.0,13.0,71,0.00,,,0.00,weatherlink.com 1.10,2013-04-23 19:01:00,
2013-04-23 15:16:00,86.2,75.0,29.81,East,92,8.0,12.0,70,0.00,,,0.00,weatherlink.com 1.10,2013-04-23 19:16:00,
2013-04-23 15:31:00,86.1,75.0,29.81,NE,35,3.0,11.0,70,0.00,,,0.00,weatherlink.com 1.10,2013-04-23 19:31:00,
2013-04-23 15:46:00,86.3,75.0,29.80,ENE,60,5.0,12.0,70,0.00,,,0.00,weatherlink.com 1.10,2013-04-23 19:46:00,
2013-04-23 16:01:00,85.5,76.0,29.80,ENE,67,5.0,11.0,73,0.00,,,0.00,weatherlink.com 1.10,2013-04-23 20:01:00,
2013-04-23 16:16:00,85.0,76.0,29.80,ENE,65,9.0,14.0,74,0.00,,,0.00,weatherlink.com 1.10,2013-04-23 20:16:00,
2013-04-23 16:31:00,84.6,76.0,29.80,NE,41,6.0,13.0,75,0.00,,,0.00,weatherlink.com 1.10,2013-04-23 20:31:00,
2013-04-23 16:46:00,84.6,76.0,29.80,ENE,77,4.0,10.0,75,0.00,,,0.00,weatherlink.com 1.10,2013-04-23 20:46:00,
2013-04-23 17:01:00,84.6,76.0,29.80,SE,130,3.0,10.0,74,0.00,,,0.00,weatherlink.com 1.10,2013-04-23 21:01:00,
2013-04-23 17:16:00,84.3,75.0,29.80,NE,54,2.0,11.0,73,0.00,,,0.00,weatherlink.com 1.10,2013-04-23 21:16:00,
2013-04-23 17:31:00,83.8,75.0,29.80,ENE,71,10.0,13.0,75,0.00,,,0.00,weatherlink.com 1.10,2013-04-23 21:31:00,
2013-04-23 17:46:00,83.8,75.0,29.80,NNE,26,4.0,11.0,75,0.00,,,0.00,weatherlink.com 1.10,2013-04-23 21:46:00,
2013-04-23 18:01:00,83.1,75.0,29.80,NE,55,8.0,12.0,77,0.00,,,0.00,weatherlink.com 1.10,2013-04-23 22:01:00,
2013-04-23 18:16:00,82.7,75.0,29.81,NNE,31,5.0,10.0,77,0.00,,,0.00,weatherlink.com 1.10,2013-04-23 22:16:00,
2013-04-23 18:31:00,81.9,75.0,29.81,ENE,68,8.0,11.0,79,0.00,,,0.00,weatherlink.com 1.10,2013-04-23 22:31:00,
2013-04-23 18:46:00,81.3,75.0,29.82,NE,34,5.0,9.0,81,0.00,,,0.00,weatherlink.com 1.10,2013-04-23 22:46:00,
2013-04-23 19:01:00,80.9,75.0,29.82,ENE,71,8.0,10.0,83,0.00,,,0.00,weatherlink.com 1.10,2013-04-23 23:01:00,
2013-04-23 19:16:00,80.5,75.0,29.82,ENE,67,10.0,12.0,83,0.00,,,0.00,weatherlink.com 1.10,2013-04-23 23:16:00,
2013-04-23 19:31:00,80.3,75.0,29.83,NNW,330,7.0,11.0,83,0.00,,,0.00,weatherlink.com 1.10,2013-04-23 23:31:00,
2013-04-23 19:46:00,80.3,75.0,29.84,NE,54,3.0,13.0,84,0.00,,,0.00,weatherlink.com 1.10,2013-04-23 23:46:00,
2013-04-23 20:01:00,80.1,75.0,29.85,East,81,7.0,13.0,84,0.00,,,0.00,weatherlink.com 1.10,2013-04-24 00:01:00,
2013-04-23 20:16:00,80.2,75.0,29.85,NE,49,8.0,15.0,85,0.00,,,0.00,weatherlink.com 1.10,2013-04-24 00:16:00,
2013-04-23 20:31:00,80.2,75.0,29.85,NE,47,2.0,13.0,85,0.00,,,0.00,weatherlink.com 1.10,2013-04-24 00:31:00,
2013-04-23 20:46:00,80.1,75.0,29.86,NE,48,3.0,12.0,84,0.00,,,0.00,weatherlink.com 1.10,2013-04-24 00:46:00,
2013-04-23 21:01:00,80.1,75.0,29.86,ENE,71,5.0,13.0,84,0.00,,,0.00,weatherlink.com 1.10,2013-04-24 01:01:00,
2013-04-23 21:16:00,80.0,75.0,29.87,ENE,66,4.0,11.0,85,0.00,,,0.00,weatherlink.com 1.10,2013-04-24 01:16:00,
2013-04-23 21:31:00,80.0,75.0,29.87,ESE,107,2.0,12.0,85,0.00,,,0.00,weatherlink.com 1.10,2013-04-24 01:31:00,
2013-04-23 21:46:00,80.0,75.0,29.88,ENE,70,7.0,10.0,85,0.00,,,0.00,weatherlink.com 1.10,2013-04-24 01:46:00,
2013-04-23 22:01:00,80.0,75.0,29.88,NE,46,10.0,10.0,85,0.00,,,0.00,weatherlink.com 1.10,2013-04-24 02:01:00,
2013-04-23 22:16:00,80.1,75.0,29.89,ENE,72,11.0,11.0,85,0.00,,,0.00,weatherlink.com 1.10,2013-04-24 02:16:00,
2013-04-23 22:31:00,80.0,76.0,29.89,East,90,6.0,13.0,86,0.00,,,0.00,weatherlink.com 1.10,2013-04-24 02:31:00,
2013-04-23 23:01:00,80.0,75.0,29.90,ENE,77,11.0,13.0,85,0.00,,,0.00,weatherlink.com 1.10,2013-04-24 03:01:00,
2013-04-23 23:16:00,80.0,76.0,29.90,ENE,58,5.0,10.0,86,0.00,,,0.00,weatherlink.com 1.10,2013-04-24 03:16:00,
2013-04-23 23:31:00,80.0,76.0,29.90,ENE,72,7.0,10.0,86,0.00,,,0.00,weatherlink.com 1.10,2013-04-24 03:31:00,
2013-04-23 23:46:00,80.0,76.0,29.90,ESE,103,5.0,13.0,86,0.00,,,0.00,weatherlink.com 1.10,2013-04-24 03:46:00,